Rio Nido, CA

9:38 PM PDT on October 22, 2014 (GMT -0700)
KCASEBAS26 | Change Station
CLOSE
Current Station
Personal Weather Station
Location: Sebastopol, CA
Elevation: 213 ft
Nearby Weather Stations

Elev 213 ft 38.46 °N, 122.86 °W | Updated 13 minutes ago

Partly Cloudy
Partly Cloudy
58.0 °F
Feels Like 58.0 °F
N
0.0
Wind Variable Wind from WNW
Gusts 0.0 mph

Today
High -- | Low -- °F
--% Chance of Precip.
Yesterday
High -- | Low -- °F
Precip. -- in
7:28 AM 6:24 PM
Waning Crescent, 1% visible
Pressure 30.01 in
Visibility 10.0 miles
Clouds Clear
Dew Point 55 °F
Humidity 90%
Rainfall 0.00 in
Snow Depth Not available.
UV 0 out of 12
Pollen 2.40 out of 12
Air Quality Not available.
Flu Activity Sporadic
METAR KSTS 230353Z AUTO 15004KT 10SM CLR 16/13 A3003 RMK AO2 SLP162 T01560128

More Conditions Fewer Conditions

Pressure 30.01 in
Visibility 10.0 miles
Clouds Clear
Dew Point 55 °F
Humidity 90%
Rainfall 0.00 in
Snow Depth Not available.
UV 0 out of 12
Pollen 2.40 out of 12
Air Quality Not available.
Flu Activity Sporadic
METAR KSTS 230353Z AUTO 15004KT 10SM CLR 16/13 A3003 RMK AO2 SLP162 T01560128

More Conditions Fewer Conditions

10-Day Weather Forecast

Almanac

Astronomy

Oct. 22, 2014 Rise Set
Actual Time 7:28 AM PDT 6:24 PM PDT
Civil Twilight 7:01 AM PDT 6:50 PM PDT
Nautical Twilight 6:30 AM PDT 7:21 PM PDT
Astronomical Twilight 5:59 AM PDT 7:52 PM PDT
Moon 6:15 AM PDT (10/22) 5:53 PM PDT (10/22)
Length of Visible Light 11h 49m
Length of Day
10h 55m
Tomorrow will be 2m 20s shorter.
Waning Crescent, 1% of the Moon is Illuminated
Oct 23
Waning Crescent
Oct 23
New
Oct 30
First Quarter
Nov 6
Full
Nov 14
Last Quarter

Yesterday's Extremes

State Highs State Lows

Community

WunderPhotos

Upload Photos

1,764,154 photos uploaded!

Nearby

Air Quality

  Air Quality AQ Index Pollutant
Wednesday Good
PM2.5
Thursday Good
PM2.5
Friday Good
PM2.5
Saturday Good
PM2.5
Sunday Good
PM2.5
Monday Good
PM2.5

Snow Depth

Station Depth Elevation
Ward Creek #3 0 in 6750 ft
Independence Lake 0 in 8450 ft
Rubicon #2 0 in 7500 ft
Independence Camp 0 in 7000 ft
Echo Peak 1 in 7800 ft

Earthquake Activity

City Distance Mag. Time & Date
No recent earthquake activity has been reported nearby.
Minimum magnitude displayed is 2.5.

Coastal Water Temperatures

Place Temperature
Point Reyes, CA 60.1 °F
Arena Cove, CA 60.1 °F
San Francisco, CA 63.0 °F
Richmond, CA 64.9 °F

Nearby Weather Stations